createdAt,value
2018-01-01T00:01:08.724Z,0
2018-01-01T00:02:30.850Z,0
2018-01-01T00:03:53.195Z,0
2018-01-01T00:05:15.070Z,0
2018-01-01T00:06:37.080Z,0
2018-01-01T00:07:59.334Z,0
2018-01-01T00:09:21.200Z,0
2018-01-01T00:10:43.186Z,0
2018-01-01T00:12:04.540Z,0
2018-01-01T00:13:26.394Z,0
2018-01-01T00:14:48.320Z,0
2018-01-01T00:16:10.458Z,0
2018-01-01T00:17:32.082Z,0
2018-01-01T00:18:53.837Z,0
2018-01-01T00:20:15.461Z,0
2018-01-01T00:21:37.384Z,0
2018-01-01T00:22:58.989Z,0
2018-01-01T00:24:20.866Z,0
2018-01-01T00:25:43.048Z,0
2018-01-01T00:27:05.274Z,0
2018-01-01T00:28:26.896Z,0
2018-01-01T00:29:48.789Z,0
2018-01-01T00:31:10.574Z,0
2018-01-01T00:32:32.432Z,0
2018-01-01T00:33:54.024Z,0
2018-01-01T00:35:15.618Z,0
2018-01-01T00:36:37.744Z,0
2018-01-01T00:37:59.615Z,0
2018-01-01T00:39:21.227Z,0
2018-01-01T00:40:43.078Z,0
2018-01-01T00:42:04.950Z,0
2018-01-01T00:43:27.181Z,0
2018-01-01T00:44:49.094Z,0
2018-01-01T00:46:11.214Z,0
2018-01-01T00:47:32.563Z,0
2018-01-01T00:48:54.154Z,0
2018-01-01T00:50:15.821Z,0
2018-01-01T00:51:37.485Z,0
2018-01-01T00:52:59.373Z,0
2018-01-01T00:54:21.112Z,0
2018-01-01T00:55:43.232Z,0
2018-01-01T00:57:04.844Z,0
2018-01-01T00:58:26.606Z,0
2018-01-01T00:59:48.866Z,0
2018-01-01T01:01:10.823Z,0
2018-01-01T01:02:32.444Z,0
2018-01-01T01:03:54.208Z,0
2018-01-01T01:05:16.079Z,0
2018-01-01T01:06:37.685Z,0
2018-01-01T01:07:59.562Z,0
2018-01-01T01:09:20.922Z,0
2018-01-01T01:10:42.528Z,0
2018-01-01T01:12:04.146Z,0
2018-01-01T01:13:26.278Z,0
2018-01-01T01:14:47.876Z,0
2018-01-01T01:16:09.487Z,0
2018-01-01T01:17:31.384Z,0
2018-01-01T01:18:53.256Z,0
2018-01-01T01:20:15.143Z,0
2018-01-01T01:21:36.798Z,0
2018-01-01T01:22:58.217Z,0
2018-01-01T01:24:19.831Z,0
2018-01-01T01:25:41.699Z,0
2018-01-01T01:27:03.037Z,0
2018-01-01T01:28:24.639Z,0
2018-01-01T01:29:46.829Z,0
2018-01-01T01:31:08.446Z,0
2018-01-01T01:32:30.634Z,0
2018-01-01T01:33:52.597Z,0
2018-01-01T01:35:14.251Z,0
2018-01-01T01:36:35.882Z,0
2018-01-01T01:37:57.787Z,0
2018-01-01T01:39:19.389Z,0
2018-01-01T01:40:41.668Z,0
2018-01-01T01:42:03.678Z,0
2018-01-01T01:43:25.663Z,0
2018-01-01T01:44:47.025Z,0
2018-01-01T01:46:08.914Z,0
2018-01-01T01:47:30.513Z,0
2018-01-01T01:48:52.451Z,0
2018-01-01T01:50:13.791Z,0
2018-01-01T01:51:35.933Z,0
2018-01-01T01:52:57.546Z,0
2018-01-01T01:54:19.753Z,0
2018-01-01T01:55:41.173Z,0
2018-01-01T01:57:02.519Z,0
2018-01-01T01:58:24.157Z,0
2018-01-01T01:59:46.117Z,0
2018-01-01T02:01:07.970Z,0
2018-01-01T02:02:30.098Z,0
2018-01-01T02:03:51.426Z,0
2018-01-01T02:05:13.239Z,0
2018-01-01T02:06:34.915Z,0
2018-01-01T02:07:57.042Z,0
2018-01-01T02:09:18.897Z,0
2018-01-01T02:10:40.779Z,0
2018-01-01T02:12:02.681Z,0
2018-01-01T02:13:24.843Z,0
2018-01-01T02:14:46.694Z,0
2018-01-01T02:16:08.796Z,0
2018-01-01T02:17:30.913Z,0
2018-01-01T02:18:52.786Z,0
2018-01-01T02:20:14.407Z,0
2018-01-01T02:21:36.583Z,0
2018-01-01T02:22:58.167Z,0
2018-01-01T02:24:19.775Z,0
2018-01-01T02:25:41.880Z,0
2018-01-01T02:27:03.222Z,0
2018-01-01T02:28:25.245Z,0
2018-01-01T02:29:46.850Z,0
2018-01-01T02:31:09.026Z,0
2018-01-01T02:32:30.930Z,0
2018-01-01T02:33:52.837Z,0
2018-01-01T02:35:14.955Z,0
2018-01-01T02:36:36.806Z,0
2018-01-01T02:37:58.776Z,0
2018-01-01T02:39:20.397Z,0
2018-01-01T02:40:42.252Z,0
2018-01-01T02:42:03.628Z,0
2018-01-01T02:43:25.827Z,0
2018-01-01T02:44:47.555Z,0
2018-01-01T02:46:09.446Z,0
2018-01-01T02:47:31.068Z,0
2018-01-01T02:48:52.960Z,0
2018-01-01T02:50:14.597Z,0
2018-01-01T02:51:36.555Z,0
2018-01-01T02:52:58.016Z,0
2018-01-01T02:54:19.113Z,0
2018-01-01T02:55:41.250Z,0
2018-01-01T02:57:02.865Z,0
2018-01-01T02:58:24.774Z,0
2018-01-01T02:59:46.497Z,0
2018-01-01T03:01:08.645Z,0
2018-01-01T03:02:30.526Z,0
2018-01-01T03:03:51.587Z,0
2018-01-01T03:05:13.541Z,0
2018-01-01T03:06:35.615Z,0
2018-01-01T03:07:57.477Z,0
2018-01-01T03:09:19.360Z,0
2018-01-01T03:10:40.978Z,0
2018-01-01T03:12:02.726Z,0
2018-01-01T03:13:24.399Z,0
2018-01-01T03:14:46.050Z,0
2018-01-01T03:16:07.912Z,0
2018-01-01T03:17:29.532Z,0
2018-01-01T03:18:51.196Z,0
2018-01-01T03:20:13.200Z,0
2018-01-01T03:21:35.149Z,0
2018-01-01T03:22:57.393Z,0
2018-01-01T03:24:19.045Z,0
2018-01-01T03:25:40.877Z,0
2018-01-01T03:27:02.534Z,0
2018-01-01T03:28:24.448Z,0
2018-01-01T03:29:46.300Z,0
2018-01-01T03:31:08.355Z,0
2018-01-01T03:32:29.994Z,0
2018-01-01T03:33:51.644Z,0
2018-01-01T03:35:13.665Z,0
2018-01-01T03:36:35.293Z,0
2018-01-01T03:37:57.208Z,0
2018-01-01T03:39:19.447Z,0
2018-01-01T03:40:40.933Z,0
2018-01-01T03:42:02.937Z,0
2018-01-01T03:43:24.589Z,0
2018-01-01T03:44:46.268Z,0
2018-01-01T03:46:08.135Z,0
2018-01-01T03:47:29.736Z,0
2018-01-01T03:48:51.327Z,0
2018-01-01T03:50:12.951Z,0
2018-01-01T03:51:35.053Z,0
2018-01-01T03:52:57.014Z,0
2018-01-01T03:54:18.532Z,0
2018-01-01T03:55:40.498Z,0
2018-01-01T03:57:01.590Z,0
2018-01-01T03:58:23.196Z,0
2018-01-01T03:59:45.063Z,0
2018-01-01T04:01:07.437Z,0
2018-01-01T04:02:29.309Z,0
2018-01-01T04:03:51.177Z,0
2018-01-01T04:05:12.820Z,0
2018-01-01T04:06:34.527Z,0
2018-01-01T04:07:56.449Z,0
2018-01-01T04:09:17.805Z,0
2018-01-01T04:10:39.934Z,0
2018-01-01T04:12:01.299Z,0
2018-01-01T04:13:22.939Z,0
2018-01-01T04:14:44.366Z,0
2018-01-01T04:16:06.254Z,0
2018-01-01T04:17:28.603Z,0
2018-01-01T04:18:50.010Z,0
2018-01-01T04:20:11.605Z,0
2018-01-01T04:21:32.769Z,0
2018-01-01T04:22:53.858Z,0
2018-01-01T04:24:15.806Z,0
2018-01-01T04:25:37.145Z,0
2018-01-01T04:26:58.553Z,0
2018-01-01T04:28:19.904Z,0
2018-01-01T04:29:41.240Z,0
2018-01-01T04:31:02.918Z,0
2018-01-01T04:32:24.869Z,0
2018-01-01T04:33:46.744Z,0
2018-01-01T04:35:08.989Z,0
2018-01-01T04:36:30.567Z,0
2018-01-01T04:37:51.906Z,0
2018-01-01T04:39:13.808Z,0
2018-01-01T04:40:35.589Z,0
2018-01-01T04:41:57.446Z,0
2018-01-01T04:43:19.776Z,0
2018-01-01T04:44:41.191Z,0
2018-01-01T04:46:03.074Z,0
2018-01-01T04:47:24.433Z,0
2018-01-01T04:48:45.776Z,0
2018-01-01T04:50:07.929Z,0
2018-01-01T04:51:29.446Z,0
2018-01-01T04:52:51.315Z,0
2018-01-01T04:54:12.675Z,0
2018-01-01T04:55:34.265Z,0
2018-01-01T04:56:55.877Z,0
2018-01-01T04:58:17.758Z,0
2018-01-01T04:59:39.643Z,0
2018-01-01T05:01:01.493Z,0
2018-01-01T05:02:23.399Z,0
2018-01-01T05:03:45.509Z,0
2018-01-01T05:05:07.379Z,0
2018-01-01T05:06:29.717Z,0
2018-01-01T05:07:51.263Z,0
2018-01-01T05:09:13.144Z,0
2018-01-01T05:10:34.997Z,0
2018-01-01T05:11:56.178Z,0
2018-01-01T05:13:17.756Z,0
2018-01-01T05:14:39.372Z,0
2018-01-01T05:16:00.978Z,0
2018-01-01T05:17:22.831Z,0
2018-01-01T05:18:44.411Z,0
2018-01-01T05:20:06.020Z,0
2018-01-01T05:21:28.178Z,0
2018-01-01T05:22:49.874Z,0
2018-01-01T05:24:11.854Z,0
2018-01-01T05:25:33.204Z,0
2018-01-01T05:26:55.389Z,0
2018-01-01T05:28:16.972Z,0
2018-01-01T05:29:39.094Z,0
2018-01-01T05:31:00.834Z,0
2018-01-01T05:32:22.172Z,0
2018-01-01T05:33:43.674Z,0
2018-01-01T05:35:05.352Z,0
2018-01-01T05:36:27.273Z,0
2018-01-01T05:37:48.704Z,0
2018-01-01T05:39:10.055Z,0
2018-01-01T05:40:31.665Z,0
2018-01-01T05:41:53.512Z,0
2018-01-01T05:43:15.341Z,0
2018-01-01T05:44:36.937Z,0
2018-01-01T05:45:58.318Z,0
2018-01-01T05:47:19.903Z,0
2018-01-01T05:48:42.092Z,0
2018-01-01T05:50:04.109Z,0
2018-01-01T05:51:25.742Z,0
2018-01-01T05:52:47.469Z,0
2018-01-01T05:54:09.057Z,0
2018-01-01T05:55:31.190Z,0
2018-01-01T05:56:53.181Z,0
2018-01-01T05:58:14.768Z,0
2018-01-01T05:59:36.638Z,0
2018-01-01T06:00:58.503Z,0
2018-01-01T06:02:20.100Z,0
2018-01-01T06:03:41.945Z,0
2018-01-01T06:05:03.908Z,0
2018-01-01T06:06:25.511Z,0
2018-01-01T06:07:47.175Z,0
2018-01-01T06:09:08.797Z,0
2018-01-01T06:10:30.731Z,0
2018-01-01T06:11:52.454Z,0
2018-01-01T06:13:14.299Z,0
2018-01-01T06:14:35.634Z,0
2018-01-01T06:15:57.464Z,0
2018-01-01T06:17:19.094Z,0
2018-01-01T06:18:40.969Z,0
2018-01-01T06:20:03.087Z,0
2018-01-01T06:21:24.660Z,0
2018-01-01T06:22:46.109Z,0
2018-01-01T06:24:07.764Z,0
2018-01-01T06:25:29.363Z,0
2018-01-01T06:26:51.258Z,0
2018-01-01T06:28:13.311Z,0
2018-01-01T06:29:34.924Z,0
2018-01-01T06:30:56.432Z,0
2018-01-01T06:32:18.564Z,0
2018-01-01T06:33:39.654Z,0
2018-01-01T06:35:01.556Z,0
2018-01-01T06:36:22.875Z,0
2018-01-01T06:37:45.069Z,0
2018-01-01T06:39:06.923Z,0
2018-01-01T06:40:28.402Z,0
2018-01-01T06:41:49.993Z,0
2018-01-01T06:43:11.906Z,0
2018-01-01T06:44:33.806Z,0
2018-01-01T06:45:55.196Z,0
2018-01-01T06:47:16.883Z,0
2018-01-01T06:48:38.815Z,0
2018-01-01T06:50:00.922Z,0
2018-01-01T06:51:22.504Z,0
2018-01-01T06:52:44.353Z,0
2018-01-01T06:54:05.428Z,0
2018-01-01T06:55:27.272Z,0
2018-01-01T06:56:49.221Z,0
2018-01-01T06:58:10.563Z,0
2018-01-01T06:59:32.402Z,0
2018-01-01T07:00:54.597Z,0
2018-01-01T07:02:16.473Z,0
2018-01-01T07:03:37.874Z,0
2018-01-01T07:05:00.048Z,0
2018-01-01T07:06:21.427Z,0
2018-01-01T07:07:43.333Z,0
2018-01-01T07:09:04.687Z,0
2018-01-01T07:10:26.285Z,0
2018-01-01T07:11:47.967Z,0
2018-01-01T07:13:10.106Z,0
2018-01-01T07:14:31.976Z,0
2018-01-01T07:15:53.883Z,0
2018-01-01T07:17:15.883Z,0
2018-01-01T07:18:37.238Z,0
2018-01-01T07:19:59.128Z,0
2018-01-01T07:21:20.243Z,0
2018-01-01T07:22:41.837Z,0
2018-01-01T07:24:03.773Z,0
2018-01-01T07:25:25.628Z,0
2018-01-01T07:26:46.950Z,0
2018-01-01T07:28:08.704Z,0
2018-01-01T07:29:30.660Z,0
2018-01-01T07:30:52.524Z,0
2018-01-01T07:32:14.429Z,5
2018-01-01T07:33:36.338Z,5
2018-01-01T07:34:57.987Z,5
2018-01-01T07:36:19.434Z,5
2018-01-01T07:37:41.332Z,5
2018-01-01T07:39:02.938Z,5
2018-01-01T07:40:24.802Z,10
2018-01-01T07:41:46.398Z,10
2018-01-01T07:43:08.562Z,10
2018-01-01T07:44:30.157Z,10
2018-01-01T07:45:51.838Z,10
2018-01-01T07:47:13.745Z,10
2018-01-01T07:48:35.403Z,15
2018-01-01T07:49:56.753Z,15
2018-01-01T07:51:18.739Z,15
2018-01-01T07:52:40.096Z,15
2018-01-01T07:54:02.026Z,15
2018-01-01T07:55:23.864Z,15
2018-01-01T07:56:45.999Z,20
2018-01-01T07:58:07.328Z,20
2018-01-01T07:59:29.354Z,20
2018-01-01T08:00:51.213Z,25
2018-01-01T08:02:12.889Z,30
2018-01-01T08:03:34.747Z,30
2018-01-01T08:04:56.455Z,30
2018-01-01T08:06:18.618Z,30
2018-01-01T08:07:40.482Z,35
2018-01-01T08:09:02.075Z,35
2018-01-01T08:10:24.032Z,35
2018-01-01T08:11:45.683Z,35
2018-01-01T08:13:06.758Z,35
2018-01-01T08:14:28.366Z,35
2018-01-01T08:15:50.518Z,35
2018-01-01T08:17:12.364Z,40
2018-01-01T08:18:33.709Z,40
2018-01-01T08:19:55.574Z,40
2018-01-01T08:21:16.890Z,40
2018-01-01T08:22:38.724Z,40
2018-01-01T08:24:00.650Z,45
2018-01-01T08:25:22.254Z,45
2018-01-01T08:26:43.834Z,45
2018-01-01T08:28:05.175Z,50
2018-01-01T08:29:27.024Z,50
2018-01-01T08:30:48.882Z,50
2018-01-01T08:32:10.587Z,50
2018-01-01T08:33:32.113Z,55
2018-01-01T08:34:53.535Z,55
2018-01-01T08:36:15.675Z,55
2018-01-01T08:37:37.473Z,55
2018-01-01T08:38:59.094Z,55
2018-01-01T08:40:21.208Z,60
2018-01-01T08:41:42.542Z,60
2018-01-01T08:43:04.154Z,60
2018-01-01T08:44:26.081Z,60
2018-01-01T08:45:47.664Z,65
2018-01-01T08:47:09.585Z,65
2018-01-01T08:48:31.689Z,65
2018-01-01T08:49:53.012Z,65
2018-01-01T08:51:15.071Z,65
2018-01-01T08:52:36.822Z,70
2018-01-01T08:53:58.434Z,70
2018-01-01T08:55:20.359Z,70
2018-01-01T08:56:41.684Z,70
2018-01-01T08:58:03.299Z,70
2018-01-01T08:59:25.437Z,70
2018-01-01T09:00:46.813Z,70
2018-01-01T09:02:08.575Z,70
2018-01-01T09:03:30.787Z,70
2018-01-01T09:04:52.676Z,70
2018-01-01T09:06:14.114Z,70
2018-01-01T09:07:35.725Z,75
2018-01-01T09:08:57.379Z,75
2018-01-01T09:10:19.115Z,80
2018-01-01T09:11:40.982Z,80
2018-01-01T09:13:02.602Z,80
2018-01-01T09:14:24.812Z,80
2018-01-01T09:15:46.419Z,80
2018-01-01T09:17:08.274Z,80
2018-01-01T09:18:30.165Z,80
2018-01-01T09:19:51.800Z,85
2018-01-01T09:21:13.397Z,85
2018-01-01T09:22:35.315Z,80
2018-01-01T09:23:56.907Z,85
2018-01-01T09:25:18.828Z,85
2018-01-01T09:26:40.730Z,85
2018-01-01T09:28:02.118Z,85
2018-01-01T09:29:23.524Z,85
2018-01-01T09:30:45.767Z,90
2018-01-01T09:32:07.483Z,90
2018-01-01T09:33:28.825Z,90
2018-01-01T09:34:51.093Z,90
2018-01-01T09:36:13.354Z,90
2018-01-01T09:37:34.693Z,90
2018-01-01T09:38:56.288Z,90
2018-01-01T09:40:17.904Z,95
2018-01-01T09:41:39.752Z,95
2018-01-01T09:43:01.362Z,95
2018-01-01T09:44:23.271Z,95
2018-01-01T09:45:44.605Z,95
2018-01-01T09:47:06.179Z,95
2018-01-01T09:48:28.243Z,90
2018-01-01T09:49:50.131Z,90
2018-01-01T09:51:11.723Z,90
2018-01-01T09:52:33.333Z,90
2018-01-01T09:53:54.931Z,95
2018-01-01T09:55:16.805Z,95
2018-01-01T09:56:38.199Z,95
2018-01-01T09:58:00.069Z,100
2018-01-01T09:59:21.655Z,105
2018-01-01T10:00:43.323Z,100
2018-01-01T10:02:05.174Z,105
2018-01-01T10:03:27.014Z,120
2018-01-01T10:04:49.144Z,130
2018-01-01T10:06:11.267Z,145
2018-01-01T10:07:32.633Z,150
2018-01-01T10:08:54.237Z,145
2018-01-01T10:10:15.615Z,145
2018-01-01T10:11:37.554Z,145
2018-01-01T10:12:59.668Z,150
2018-01-01T10:14:21.858Z,150
2018-01-01T10:15:43.451Z,155
2018-01-01T10:17:05.576Z,150
2018-01-01T10:18:27.724Z,155
2018-01-01T10:19:49.854Z,165
2018-01-01T10:21:11.715Z,165
2018-01-01T10:22:33.626Z,155
2018-01-01T10:23:55.222Z,160
2018-01-01T10:25:17.156Z,150
2018-01-01T10:26:38.495Z,155
2018-01-01T10:28:00.107Z,140
2018-01-01T10:29:22.240Z,130
2018-01-01T10:30:43.859Z,135
2018-01-01T10:32:05.633Z,150
2018-01-01T10:33:27.500Z,150
2018-01-01T10:34:49.360Z,150
2018-01-01T10:36:11.473Z,140
2018-01-01T10:37:33.082Z,145
2018-01-01T10:38:55.310Z,145
2018-01-01T10:40:16.651Z,160
2018-01-01T10:41:38.386Z,145
2018-01-01T10:43:00.139Z,150
2018-01-01T10:44:22.023Z,150
2018-01-01T10:45:43.969Z,140
2018-01-01T10:47:05.916Z,145
2018-01-01T10:48:27.621Z,150
2018-01-01T10:49:49.235Z,145
2018-01-01T10:51:11.387Z,135
2018-01-01T10:52:33.508Z,125
2018-01-01T10:53:55.391Z,130
2018-01-01T10:55:17.135Z,135
2018-01-01T10:56:39.275Z,145
2018-01-01T10:58:01.392Z,155
2018-01-01T10:59:22.747Z,145
2018-01-01T11:00:44.396Z,155
2018-01-01T11:02:06.627Z,160
2018-01-01T11:03:28.507Z,170
2018-01-01T11:04:50.639Z,145
2018-01-01T11:06:12.380Z,145
2018-01-01T11:07:34.246Z,160
2018-01-01T11:08:56.401Z,130
2018-01-01T11:10:18.118Z,130
2018-01-01T11:11:40.156Z,130
2018-01-01T11:13:34.363Z,130
2018-01-01T11:14:56.484Z,135
2018-01-01T11:16:18.096Z,135
2018-01-01T11:17:39.696Z,125
2018-01-01T11:19:01.670Z,120
2018-01-01T11:20:23.300Z,125
2018-01-01T11:21:44.914Z,145
2018-01-01T11:23:06.789Z,125
2018-01-01T11:24:28.241Z,115
2018-01-01T11:25:49.865Z,125
2018-01-01T11:27:11.731Z,115
2018-01-01T11:28:33.869Z,120
2018-01-01T11:29:55.737Z,115
2018-01-01T11:31:17.880Z,115
2018-01-01T11:32:40.274Z,110
2018-01-01T11:34:02.153Z,120
2018-01-01T11:35:23.764Z,110
2018-01-01T11:36:45.758Z,105
2018-01-01T11:38:07.870Z,120
2018-01-01T11:39:29.852Z,125
2018-01-01T11:40:51.798Z,120
2018-01-01T11:42:13.466Z,115
2018-01-01T11:43:35.084Z,100
2018-01-01T11:44:57.246Z,100
2018-01-01T11:46:19.173Z,105
2018-01-01T11:47:40.805Z,85
2018-01-01T11:49:02.937Z,85
2018-01-01T11:50:25.104Z,95
2018-01-01T11:51:47.089Z,95
2018-01-01T11:53:08.703Z,105
2018-01-01T11:54:30.584Z,110
2018-01-01T11:55:52.701Z,130
2018-01-01T11:57:14.617Z,135
2018-01-01T11:58:36.797Z,135
2018-01-01T11:59:58.653Z,135
2018-01-01T12:01:20.025Z,125
2018-01-01T12:02:42.194Z,125
2018-01-01T12:04:04.103Z,115
2018-01-01T12:05:26.302Z,105
2018-01-01T12:06:48.010Z,105
2018-01-01T12:08:09.632Z,120
2018-01-01T12:09:31.529Z,125
2018-01-01T12:10:53.701Z,135
2018-01-01T12:12:19.539Z,125
2018-01-01T12:13:41.479Z,140
2018-01-01T12:15:03.201Z,130
2018-01-01T12:16:25.159Z,130
2018-01-01T12:17:47.151Z,140
2018-01-01T12:19:09.158Z,125
2018-01-01T12:20:31.286Z,125
2018-01-01T12:21:52.713Z,110
2018-01-01T12:23:14.891Z,90
2018-01-01T12:24:36.816Z,75
2018-01-01T12:25:58.951Z,70
2018-01-01T12:27:20.603Z,70
2018-01-01T12:28:41.958Z,70
2018-01-01T12:30:03.832Z,75
2018-01-01T12:31:25.980Z,80
2018-01-01T12:32:47.955Z,70
2018-01-01T12:34:10.076Z,75
2018-01-01T12:35:31.687Z,90
2018-01-01T12:36:53.334Z,100
2018-01-01T12:38:14.752Z,80
2018-01-01T12:39:37.039Z,60
2018-01-01T12:40:59.221Z,55
2018-01-01T12:42:20.632Z,45
2018-01-01T12:43:42.564Z,55
2018-01-01T12:45:04.465Z,65
2018-01-01T12:46:26.412Z,90
2018-01-01T12:47:48.613Z,105
2018-01-01T12:49:10.515Z,110
2018-01-01T12:50:32.661Z,105
2018-01-01T12:51:54.543Z,95
2018-01-01T12:53:16.669Z,85
2018-01-01T12:54:38.779Z,120
2018-01-01T12:56:00.966Z,160
2018-01-01T12:57:22.985Z,125
2018-01-01T12:58:44.624Z,110
2018-01-01T13:00:07.397Z,100
2018-01-01T13:01:29.323Z,110
2018-01-01T13:02:51.265Z,105
2018-01-01T13:04:13.446Z,105
2018-01-01T13:05:35.574Z,90
2018-01-01T13:06:57.469Z,95
2018-01-01T13:08:19.175Z,120
2018-01-01T13:09:41.334Z,115
2018-01-01T13:11:03.264Z,120
2018-01-01T13:12:25.500Z,120
2018-01-01T13:13:47.364Z,115
2018-01-01T13:15:09.356Z,115
2018-01-01T13:16:30.746Z,110
2018-01-01T13:17:52.753Z,110
2018-01-01T13:19:14.385Z,100
2018-01-01T13:20:36.078Z,95
2018-01-01T13:21:58.343Z,90
2018-01-01T13:23:19.969Z,75
2018-01-01T13:24:41.335Z,60
2018-01-01T13:26:03.484Z,60
2018-01-01T13:27:25.651Z,60
2018-01-01T13:28:48.125Z,65
2018-01-01T13:30:10.344Z,60
2018-01-01T13:31:32.202Z,60
2018-01-01T13:32:54.145Z,65
2018-01-01T13:34:16.361Z,70
2018-01-01T13:35:38.528Z,70
2018-01-01T13:37:00.013Z,70
2018-01-01T13:38:22.183Z,70
2018-01-01T13:39:43.962Z,65
2018-01-01T13:41:05.916Z,70
2018-01-01T13:42:28.050Z,75
2018-01-01T13:43:49.955Z,80
2018-01-01T13:45:11.429Z,85
2018-01-01T13:46:33.393Z,90
2018-01-01T13:47:55.281Z,80
2018-01-01T13:49:17.433Z,65
2018-01-01T13:50:39.589Z,65
2018-01-01T13:52:01.591Z,60
2018-01-01T13:53:23.244Z,60
2018-01-01T13:54:45.163Z,65
2018-01-01T13:56:07.506Z,80
2018-01-01T13:57:29.427Z,75
2018-01-01T13:58:51.069Z,70
2018-01-01T14:00:13.030Z,65
2018-01-01T14:01:35.253Z,70
2018-01-01T14:02:57.208Z,65
2018-01-01T14:04:19.378Z,65
2018-01-01T14:05:40.995Z,65
2018-01-01T14:07:02.844Z,65
2018-01-01T14:08:24.226Z,65
2018-01-01T14:09:46.175Z,60
2018-01-01T14:11:08.067Z,60
2018-01-01T14:12:30.244Z,60
2018-01-01T14:13:52.424Z,60
2018-01-01T14:15:14.587Z,60
2018-01-01T14:16:36.470Z,60
2018-01-01T14:17:58.443Z,60
2018-01-01T14:19:20.348Z,60
2018-01-01T14:20:42.494Z,60
2018-01-01T14:22:04.638Z,55
2018-01-01T14:23:26.774Z,55
2018-01-01T14:24:48.883Z,55
2018-01-01T14:26:10.777Z,55
2018-01-01T14:27:32.910Z,55
2018-01-01T14:28:54.564Z,55
2018-01-01T14:30:16.040Z,55
2018-01-01T14:31:37.660Z,50
2018-01-01T14:32:59.519Z,50
2018-01-01T14:34:21.410Z,45
2018-01-01T14:35:43.638Z,45
2018-01-01T14:37:05.024Z,40
2018-01-01T14:38:27.246Z,40
2018-01-01T14:39:49.166Z,35
2018-01-01T14:41:10.808Z,35
2018-01-01T14:42:32.484Z,35
2018-01-01T14:43:54.641Z,35
2018-01-01T14:45:16.839Z,30
2018-01-01T14:46:39.038Z,30
2018-01-01T14:48:00.979Z,30
2018-01-01T14:49:22.994Z,25
2018-01-01T14:50:44.666Z,25
2018-01-01T14:52:06.827Z,25
2018-01-01T14:53:29.004Z,25
2018-01-01T14:54:51.210Z,20
2018-01-01T14:56:13.154Z,20
2018-01-01T14:57:35.453Z,20
2018-01-01T14:58:57.883Z,20
2018-01-01T15:00:20.034Z,15
2018-01-01T15:01:41.968Z,15
2018-01-01T15:03:03.591Z,15
2018-01-01T15:04:25.580Z,15
2018-01-01T15:05:47.783Z,15
2018-01-01T15:07:10.037Z,10
2018-01-01T15:08:31.962Z,10
2018-01-01T15:09:53.868Z,10
2018-01-01T15:11:15.304Z,10
2018-01-01T15:12:37.542Z,10
2018-01-01T15:13:59.818Z,5
2018-01-01T15:15:21.975Z,5
2018-01-01T15:16:43.585Z,5
2018-01-01T15:18:05.548Z,5
2018-01-01T15:19:27.777Z,5
2018-01-01T15:20:49.695Z,5
2018-01-01T15:22:11.315Z,5
2018-01-01T15:23:32.666Z,0
2018-01-01T15:24:54.837Z,0
2018-01-01T15:26:17.011Z,0
2018-01-01T15:27:39.211Z,0
2018-01-01T15:29:01.140Z,0
2018-01-01T15:30:22.825Z,0
2018-01-01T15:31:45.072Z,0
2018-01-01T15:33:06.764Z,0
2018-01-01T15:34:28.622Z,0
2018-01-01T15:35:50.802Z,0
2018-01-01T15:37:12.723Z,0
2018-01-01T15:38:34.686Z,0
2018-01-01T15:39:56.600Z,0
2018-01-01T15:41:18.515Z,0
2018-01-01T15:42:40.794Z,0
2018-01-01T15:44:02.948Z,0
2018-01-01T15:45:24.867Z,0
2018-01-01T15:46:46.769Z,0
2018-01-01T15:48:08.257Z,0
2018-01-01T15:49:30.285Z,0
2018-01-01T15:50:52.518Z,0
2018-01-01T15:52:14.677Z,0
2018-01-01T15:53:36.890Z,0
2018-01-01T15:54:59.266Z,0
2018-01-01T15:56:21.171Z,0
2018-01-01T15:57:42.806Z,0
2018-01-01T15:59:05.076Z,0
2018-01-01T16:00:26.962Z,0
2018-01-01T16:01:49.127Z,0
2018-01-01T16:03:10.771Z,0
2018-01-01T16:04:32.689Z,0
2018-01-01T16:05:54.603Z,0
2018-01-01T16:07:16.501Z,0
2018-01-01T16:08:38.415Z,0
2018-01-01T16:10:00.349Z,0
2018-01-01T16:11:22.504Z,0
2018-01-01T16:12:44.681Z,0
2018-01-01T16:14:06.841Z,0
2018-01-01T16:15:28.967Z,0
2018-01-01T16:16:51.265Z,0
2018-01-01T16:18:12.955Z,0
2018-01-01T16:19:35.104Z,0
2018-01-01T16:20:57.267Z,0
2018-01-01T16:22:19.198Z,0
2018-01-01T16:23:41.606Z,0
2018-01-01T16:25:03.909Z,0
2018-01-01T16:26:25.787Z,0
2018-01-01T16:27:48.097Z,0
2018-01-01T16:29:10.130Z,0
2018-01-01T16:30:32.319Z,0
2018-01-01T16:31:54.475Z,0
2018-01-01T16:33:16.391Z,0
2018-01-01T16:34:52.918Z,0
2018-01-01T16:36:15.128Z,0
2018-01-01T16:37:37.295Z,0
2018-01-01T16:38:58.985Z,0
2018-01-01T16:40:21.482Z,0
2018-01-01T16:41:43.868Z,0
2018-01-01T16:43:05.528Z,0
2018-01-01T16:44:27.709Z,0
2018-01-01T16:45:49.531Z,0
2018-01-01T16:47:11.652Z,0
2018-01-01T16:48:33.568Z,0
2018-01-01T16:49:55.192Z,0
2018-01-01T16:51:17.316Z,0
2018-01-01T16:52:39.246Z,0
2018-01-01T16:54:01.421Z,0
2018-01-01T16:55:23.588Z,0
2018-01-01T16:56:45.776Z,0
2018-01-01T16:58:07.658Z,0
2018-01-01T16:59:29.534Z,0
2018-01-01T17:00:51.479Z,0
2018-01-01T17:02:13.639Z,0
2018-01-01T17:03:35.807Z,0
2018-01-01T17:04:57.675Z,0
2018-01-01T17:06:19.848Z,0
2018-01-01T17:07:41.558Z,0
2018-01-01T17:09:03.587Z,0
2018-01-01T17:10:25.736Z,0
2018-01-01T17:11:47.865Z,0
2018-01-01T17:13:10.100Z,0
2018-01-01T17:14:32.771Z,0
2018-01-01T17:15:54.806Z,0
2018-01-01T17:17:16.988Z,0
2018-01-01T17:18:39.013Z,0
2018-01-01T17:20:01.298Z,0
2018-01-01T17:21:22.927Z,0
2018-01-01T17:22:44.874Z,0
2018-01-01T17:24:06.788Z,0
2018-01-01T17:25:28.478Z,0
2018-01-01T17:26:50.402Z,0
2018-01-01T17:28:12.550Z,0
2018-01-01T17:29:34.443Z,0
2018-01-01T17:30:56.598Z,0
2018-01-01T17:32:18.568Z,0
2018-01-01T17:33:40.910Z,0
2018-01-01T17:35:03.079Z,0
2018-01-01T17:36:25.375Z,0
2018-01-01T17:37:47.636Z,0
2018-01-01T17:39:09.769Z,0
2018-01-01T17:40:31.999Z,0
2018-01-01T17:41:54.176Z,0
2018-01-01T17:43:15.833Z,0
2018-01-01T17:44:37.784Z,0
2018-01-01T17:46:00.020Z,0
2018-01-01T17:47:22.186Z,0
2018-01-01T17:48:44.475Z,0
2018-01-01T17:50:06.518Z,0
2018-01-01T17:51:28.776Z,0
2018-01-01T17:52:50.469Z,0
2018-01-01T17:54:12.349Z,0
2018-01-01T17:55:34.543Z,0
2018-01-01T17:56:56.430Z,0
2018-01-01T17:58:18.692Z,0
2018-01-01T17:59:40.884Z,0
2018-01-01T18:01:02.358Z,0
2018-01-01T18:02:24.259Z,0
2018-01-01T18:03:46.146Z,0
2018-01-01T18:05:07.758Z,0
2018-01-01T18:06:29.775Z,0
2018-01-01T18:07:51.684Z,0
2018-01-01T18:09:13.889Z,0
2018-01-01T18:10:36.062Z,0
2018-01-01T18:11:58.272Z,0
2018-01-01T18:13:20.164Z,0
2018-01-01T18:14:42.468Z,0
2018-01-01T18:16:04.562Z,0
2018-01-01T18:17:26.457Z,0
2018-01-01T18:18:48.765Z,0
2018-01-01T18:20:10.670Z,0
2018-01-01T18:21:32.913Z,0
2018-01-01T18:22:54.831Z,0
2018-01-01T18:24:49.041Z,0
2018-01-01T18:26:11.211Z,0
2018-01-01T18:27:33.354Z,0
2018-01-01T18:28:55.240Z,0
2018-01-01T18:30:17.148Z,0
2018-01-01T18:31:39.086Z,0
2018-01-01T18:33:00.994Z,0
2018-01-01T18:34:23.197Z,0
2018-01-01T18:35:45.169Z,0
2018-01-01T18:37:07.506Z,0
2018-01-01T18:38:29.742Z,0
2018-01-01T18:39:51.776Z,0
2018-01-01T18:41:14.100Z,0
2018-01-01T18:42:36.110Z,0
2018-01-01T18:43:58.599Z,0
2018-01-01T18:45:20.935Z,0
2018-01-01T18:46:43.281Z,0
2018-01-01T18:48:05.534Z,0
2018-01-01T18:49:28.319Z,0
2018-01-01T18:50:50.395Z,0
2018-01-01T18:52:12.132Z,0
2018-01-01T18:53:34.338Z,0
2018-01-01T18:54:56.536Z,0
2018-01-01T18:56:18.409Z,0
2018-01-01T18:57:40.596Z,0
2018-01-01T18:59:02.501Z,0
2018-01-01T19:00:24.481Z,0
2018-01-01T19:01:46.694Z,0
2018-01-01T19:03:08.679Z,0
2018-01-01T19:04:30.626Z,0
2018-01-01T19:05:52.544Z,0
2018-01-01T19:07:14.998Z,0
2018-01-01T19:08:37.020Z,0
2018-01-01T19:09:58.654Z,0
2018-01-01T19:11:20.578Z,0
2018-01-01T19:12:42.482Z,0
2018-01-01T19:14:04.683Z,0
2018-01-01T19:15:26.839Z,0
2018-01-01T19:16:48.793Z,0
2018-01-01T19:18:11.100Z,0
2018-01-01T19:19:33.070Z,0
2018-01-01T19:20:55.186Z,0
2018-01-01T19:22:17.353Z,0
2018-01-01T19:23:39.102Z,0
2018-01-01T19:25:00.996Z,0
2018-01-01T19:26:23.293Z,0
2018-01-01T19:27:45.515Z,0
2018-01-01T19:29:07.696Z,0
2018-01-01T19:30:29.925Z,0
2018-01-01T19:31:51.324Z,0
2018-01-01T19:33:13.524Z,0
2018-01-01T19:34:50.341Z,0
2018-01-01T19:36:11.936Z,0
2018-01-01T19:37:34.220Z,0
2018-01-01T19:38:56.407Z,0
2018-01-01T19:40:18.680Z,0
2018-01-01T19:41:40.932Z,0
2018-01-01T19:43:02.878Z,0
2018-01-01T19:44:25.185Z,0
2018-01-01T19:45:47.371Z,0
2018-01-01T19:47:09.597Z,0
2018-01-01T19:48:31.467Z,0
2018-01-01T19:49:53.772Z,0